Time;durP1;ratioP1;P1;durP2;ratioP2;P2;SDS_P1;SDS_P2;PMS_P1;PMS_P2;Temp;Humidity;BMP_temperature;BMP_pressure;BME280_temperature;BME280_humidity;BME280_pressure;Samples;Min_cycle;Max_cycle;Signal;HPM_P1;HPM_P2
2022/05/13 00:00:52;;;;;;;0.00;0.00;;;;;;;13.28;63.78;100877.25;7364707;19;20017;-59
2022/05/13 00:03:18;;;;;;;0.03;0.03;;;;;;;13.21;63.46;100866.09;7365771;19;20014;-60
2022/05/13 00:05:43;;;;;;;0.00;0.00;;;;;;;13.26;64.19;100872.97;7364425;19;20014;-61
2022/05/13 00:08:08;;;;;;;0.10;0.10;;;;;;;13.27;64.12;100880.78;7366040;19;20078;-61
2022/05/13 00:10:34;;;;;;;0.00;0.00;;;;;;;13.24;64.07;100862.53;7363481;19;20010;-59
2022/05/13 00:12:59;;;;;;;0.00;0.00;;;;;;;13.26;64.12;100867.72;7365162;19;20073;-59
2022/05/13 00:15:26;;;;;;;0.10;0.10;;;;;;;13.27;63.93;100869.44;7364435;19;20465;-61
2022/05/13 00:17:54;;;;;;;0.00;0.00;;;;;;;13.27;64.06;100861.56;7364139;19;20018;-59
2022/05/13 00:20:20;;;;;;;;;;;;;;;13.31;62.90;100866.66;7365860;19;20022;-60
2022/05/13 00:22:52;;;;;;;0.00;0.00;;;;;;;13.31;63.30;100871.06;7366726;19;20457;-61
2022/05/13 00:25:23;;;;;;;0.00;0.00;;;;;;;13.29;63.99;100862.38;7362525;19;20030;-58
2022/05/13 00:27:49;;;;;;;0.00;0.00;;;;;;;13.27;63.85;100865.03;7366976;19;20006;-60
2022/05/13 00:30:16;;;;;;;0.10;0.10;;;;;;;13.25;63.80;100866.84;7364146;19;20022;-60
2022/05/13 00:32:42;;;;;;;0.00;0.00;;;;;;;13.26;63.98;100862.47;7364750;19;20380;-60
2022/05/13 00:35:08;;;;;;;0.00;0.00;;;;;;;13.25;63.44;100866.84;7362517;19;20017;-59
2022/05/13 00:37:34;;;;;;;0.00;0.00;;;;;;;13.20;63.87;100864.34;7364827;19;20595;-60
2022/05/13 00:40:02;;;;;;;0.00;0.00;;;;;;;13.11;63.65;100848.88;7363370;19;20023;-59
2022/05/13 00:42:28;;;;;;;0.00;0.00;;;;;;;13.24;63.80;100870.41;7365158;19;20046;-61
2022/05/13 00:44:53;;;;;;;0.08;0.08;;;;;;;13.23;63.92;100864.28;7364762;19;20795;-61
2022/05/13 00:47:19;;;;;;;0.00;0.00;;;;;;;13.26;63.80;100862.47;7364599;19;20011;-60
2022/05/13 00:49:44;;;;;;;0.00;0.00;;;;;;;13.17;63.71;100853.94;7364951;19;20025;-61
2022/05/13 00:52:11;;;;;;;0.08;0.08;;;;;;;13.22;63.54;100864.31;7103160;19;20715;-62
2022/05/13 00:54:39;;;;;;;0.10;0.10;;;;;;;13.23;63.52;100861.66;6622506;19;20436;-61
2022/05/13 00:57:05;;;;;;;0.00;0.00;;;;;;;13.27;63.69;100877.28;6796525;19;20010;-60
2022/05/13 00:59:34;;;;;;;0.00;0.00;;;;;;;13.28;63.96;100869.41;7364712;19;20157;-59
2022/05/13 01:01:59;;;;;;;0.03;0.03;;;;;;;13.24;63.42;100855.50;7361778;19;20014;-60
2022/05/13 01:04:26;;;;;;;0.00;0.00;;;;;;;13.26;63.64;100854.59;7362368;19;20017;-60
2022/05/13 01:06:55;;;;;;;0.00;0.00;;;;;;;13.26;63.97;100851.97;7359664;19;20048;-59
2022/05/13 01:09:21;;;;;;;0.10;0.10;;;;;;;13.24;63.47;100855.50;7360986;19;20017;-58
2022/05/13 01:11:52;;;;;;;0.00;0.00;;;;;;;13.24;63.57;100849.41;7367914;19;20014;-59
2022/05/13 01:14:27;;;;;;;0.00;0.00;;;;;;;13.23;63.17;100848.56;7367893;19;20030;-58
2022/05/13 01:19:36;;;;;;;0.00;0.00;;;;;;;13.20;63.53;100851.22;7363106;19;20473;-58
2022/05/13 01:22:13;;;;;;;0.00;0.00;;;;;;;13.21;63.21;100847.72;7361201;19;21271;-61
2022/05/13 01:24:38;;;;;;;0.00;0.00;;;;;;;13.11;63.91;100843.66;7363281;19;20031;-61
2022/05/13 01:27:04;;;;;;;0.03;0.03;;;;;;;13.12;63.52;100845.34;7362449;19;20098;-61
2022/05/13 01:29:29;;;;;;;0.08;0.08;;;;;;;13.11;63.96;100853.28;7365308;19;20010;-60
2022/05/13 01:31:55;;;;;;;0.00;0.00;;;;;;;13.05;63.75;100843.84;7364561;19;20010;-60
2022/05/13 01:34:20;;;;;;;0.00;0.00;;;;;;;13.03;63.70;100839.53;7365518;19;20037;-60
2022/05/13 01:36:46;;;;;;;0.00;0.00;;;;;;;13.03;63.81;100847.41;7363691;19;20003;-61
2022/05/13 01:39:11;;;;;;;0.10;0.10;;;;;;;13.03;63.85;100845.66;7363525;19;20029;-61
2022/05/13 01:41:36;;;;;;;0.00;0.00;;;;;;;12.97;63.51;100837.97;7364540;19;20350;-59
2022/05/13 01:44:02;;;;;;;0.10;0.10;;;;;;;12.99;63.93;100844.03;7360655;19;20052;-60
2022/05/13 01:46:27;;;;;;;0.00;0.00;;;;;;;12.99;63.56;100847.50;7365473;19;20492;-60
2022/05/13 01:48:54;;;;;;;0.00;0.00;;;;;;;12.97;64.01;100836.19;7359977;19;20014;-61
2022/05/13 01:51:19;;;;;;;0.10;0.10;;;;;;;12.93;64.20;100834.59;7364021;19;20010;-59
2022/05/13 01:53:45;;;;;;;0.00;0.00;;;;;;;12.92;63.51;100832.00;7363040;19;20561;-60
2022/05/13 01:56:10;;;;;;;0.00;0.00;;;;;;;12.91;63.50;100822.44;7364483;19;20074;-59
2022/05/13 01:58:36;;;;;;;0.00;0.00;;;;;;;12.92;63.13;100837.25;7350008;19;20006;-59
2022/05/13 02:01:04;;;;;;;0.05;0.05;;;;;;;12.88;63.17;100823.41;7358751;19;20057;-60
2022/05/13 02:03:45;;;;;;;0.00;0.00;;;;;;;12.88;63.89;100835.63;7360345;19;20010;-61
2022/05/13 02:06:24;;;;;;;0.00;0.00;;;;;;;12.87;63.72;100840.00;7357270;19;20010;-59
2022/05/13 02:08:53;;;;;;;0.10;0.10;;;;;;;12.84;63.66;100829.63;7358784;19;20470;-59
2022/05/13 02:11:20;;;;;;;0.00;0.00;;;;;;;12.81;63.13;100829.69;7354424;19;20018;-61
2022/05/13 02:13:46;;;;;;;0.00;0.00;;;;;;;12.80;63.54;100827.13;7357652;19;20025;-59
2022/05/13 02:16:13;;;;;;;0.03;0.03;;;;;;;12.78;63.99;100823.72;7356298;19;20017;-60
2022/05/13 02:18:39;;;;;;;0.00;0.00;;;;;;;12.68;63.72;100818.75;7356614;19;20037;-60
2022/05/13 02:21:06;;;;;;;0.08;0.08;;;;;;;12.75;63.63;100834.28;7358585;19;20560;-60
2022/05/13 02:23:32;;;;;;;0.00;0.00;;;;;;;12.65;64.01;100824.06;7356419;19;20724;-60
2022/05/13 02:26:03;;;;;;;0.00;0.00;;;;;;;12.72;64.04;100829.97;7356161;19;20098;-61
2022/05/13 02:28:30;;;;;;;0.00;0.00;;;;;;;12.69;64.33;100830.94;7356009;19;20466;-60
2022/05/13 02:30:55;;;;;;;0.00;0.00;;;;;;;12.69;64.23;100828.31;7359072;19;20016;-61
2022/05/13 02:33:21;;;;;;;0.00;0.00;;;;;;;12.69;63.90;100841.41;7356618;19;20014;-59
2022/05/13 02:35:46;;;;;;;0.00;0.00;;;;;;;12.69;64.17;100832.69;7356970;19;20021;-58
2022/05/13 02:38:15;;;;;;;0.00;0.00;;;;;;;12.70;64.34;100827.41;7355786;19;20007;-61
2022/05/13 02:43:24;;;;;;;0.00;0.00;;;;;;;12.68;64.68;100823.97;7357788;19;20027;-61
2022/05/13 02:45:50;;;;;;;0.00;0.00;;;;;;;12.68;64.28;100821.38;7362727;19;20006;-61
2022/05/13 02:48:15;;;;;;;0.10;0.10;;;;;;;12.73;64.23;100827.31;7360067;19;20010;-59
2022/05/13 02:50:40;;;;;;;0.00;0.00;;;;;;;12.73;64.63;100837.81;7357016;19;20810;-59
2022/05/13 02:53:06;;;;;;;0.00;0.00;;;;;;;12.75;64.47;100810.69;7364493;19;20024;-59
2022/05/13 02:55:32;;;;;;;0.00;0.00;;;;;;;12.74;64.41;100812.47;7362988;19;20773;-58
2022/05/13 02:57:57;;;;;;;0.00;0.00;;;;;;;12.76;64.17;100807.16;7357468;19;20030;-59
2022/05/13 03:00:23;;;;;;;0.00;0.00;;;;;;;12.77;64.15;100821.97;7357493;19;20006;-61
2022/05/13 03:02:48;;;;;;;0.00;0.00;;;;;;;12.66;64.16;100810.06;7356817;19;20718;-59
2022/05/13 03:05:14;;;;;;;0.00;0.00;;;;;;;12.78;64.17;100819.34;7350565;19;20051;-60
2022/05/13 03:07:40;;;;;;;0.00;0.00;;;;;;;12.78;64.53;100818.47;7353671;19;20022;-61
2022/05/13 03:10:06;;;;;;;0.00;0.00;;;;;;;12.76;64.08;100825.50;7356999;19;21053;-60
2022/05/13 03:12:32;;;;;;;0.00;0.00;;;;;;;12.70;64.15;100811.69;7356014;19;20014;-58
2022/05/13 03:14:57;;;;;;;0.03;0.03;;;;;;;12.76;64.51;100820.25;7362302;19;20002;-61
2022/05/13 03:17:23;;;;;;;0.00;0.00;;;;;;;12.77;64.03;100828.06;7362485;19;20070;-60
2022/05/13 03:19:48;;;;;;;0.00;0.00;;;;;;;12.75;64.53;100818.56;7352438;19;20117;-61
2022/05/13 03:22:13;;;;;;;0.00;0.00;;;;;;;12.73;64.55;100818.63;7354819;19;20054;-61
2022/05/13 03:24:39;;;;;;;0.00;0.00;;;;;;;12.69;64.33;100820.44;7354221;19;20877;-59
2022/05/13 03:27:04;;;;;;;0.00;0.00;;;;;;;12.70;64.39;100827.41;7354326;19;20018;-60
2022/05/13 03:29:30;;;;;;;0.00;0.00;;;;;;;12.69;64.26;100841.41;7355694;19;20006;-60
2022/05/13 03:31:56;;;;;;;0.00;0.00;;;;;;;12.58;64.77;100806.81;7356171;19;21541;-60
2022/05/13 03:34:21;;;;;;;0.00;0.00;;;;;;;12.63;64.81;100825.88;7358385;19;20354;-61
2022/05/13 03:36:50;;;;;;;0.00;0.00;;;;;;;12.62;64.57;100834.66;7358709;19;20010;-59
2022/05/13 03:39:16;;;;;;;0.00;0.00;;;;;;;12.64;64.80;100827.59;7355690;19;20006;-61
2022/05/13 03:41:42;;;;;;;0.00;0.00;;;;;;;12.62;65.08;100812.81;7351747;19;20019;-59
2022/05/13 03:44:08;;;;;;;0.10;0.10;;;;;;;12.60;65.05;100817.25;7359249;19;20010;-58
2022/05/13 03:46:34;;;;;;;0.00;0.00;;;;;;;12.63;64.69;100810.16;7360936;19;20613;-60
2022/05/13 03:49:00;;;;;;;0.00;0.00;;;;;;;12.61;64.88;100806.72;7356807;19;20023;-59
2022/05/13 03:51:26;;;;;;;0.00;0.00;;;;;;;12.45;65.09;100789.72;7358638;19;20002;-60
2022/05/13 03:53:51;;;;;;;0.00;0.00;;;;;;;12.60;64.67;100809.38;7361781;19;20027;-60
2022/05/13 03:56:16;;;;;;;0.10;0.10;;;;;;;12.58;65.08;100814.69;7358078;19;20097;-61
2022/05/13 03:58:42;;;;;;;0.00;0.00;;;;;;;12.58;64.83;100812.06;7360163;19;20019;-59
2022/05/13 04:01:07;;;;;;;0.00;0.00;;;;;;;12.58;64.98;100819.06;7357915;19;20025;-60
2022/05/13 04:03:32;;;;;;;0.00;0.00;;;;;;;12.57;64.90;100814.69;7360014;19;20021;-60
2022/05/13 04:08:57;;;;;;;0.00;0.00;;;;;;;12.53;65.30;100806.09;7365271;19;20022;-60
2022/05/13 04:11:24;;;;;;;0.00;0.00;;;;;;;12.42;65.46;100792.47;7365660;19;20007;-58
2022/05/13 04:16:33;;;;;;;0.00;0.00;;;;;;;12.36;65.04;100790.84;7364603;19;20033;-60
2022/05/13 04:18:59;;;;;;;0.00;0.00;;;;;;;12.39;65.39;100792.53;7365629;19;20735;-60
2022/05/13 04:21:30;;;;;;;0.08;0.08;;;;;;;12.52;65.68;100820.09;7365337;19;20530;-62
2022/05/13 04:23:58;;;;;;;0.00;0.00;;;;;;;12.52;65.60;100799.16;7365853;19;20010;-59
2022/05/13 04:26:24;;;;;;;0.00;0.00;;;;;;;12.38;65.35;100780.34;7363239;19;20018;-61
2022/05/13 04:28:52;;;;;;;0.10;0.10;;;;;;;12.53;65.18;100808.72;7365782;19;20013;-59
2022/05/13 04:31:21;;;;;;;0.00;0.00;;;;;;;12.48;65.46;100791.41;7365568;19;20011;-61
2022/05/13 04:33:47;;;;;;;0.00;0.00;;;;;;;12.56;65.78;100805.13;7364585;19;20013;-59
2022/05/13 04:36:13;;;;;;;0.00;0.00;;;;;;;12.57;65.21;100794.63;7364366;19;20094;-61
2022/05/13 04:38:39;;;;;;;0.03;0.03;;;;;;;12.52;65.58;100791.28;7366118;19;20035;-59
2022/05/13 04:43:50;;;;;;;0.00;0.00;;;;;;;12.58;65.67;100796.34;7371857;19;20017;-59
2022/05/13 04:46:17;;;;;;;0.00;0.00;;;;;;;12.62;64.93;100818.94;7361023;19;20011;-59
2022/05/13 04:48:43;;;;;;;0.00;0.00;;;;;;;12.52;65.08;100785.16;7363863;19;20014;-59
2022/05/13 04:51:10;;;;;;;0.10;0.10;;;;;;;12.63;65.23;100807.53;7363302;19;20969;-60
2022/05/13 04:53:37;;;;;;;0.00;0.00;;;;;;;12.63;65.39;100797.06;7363072;19;20019;-59
2022/05/13 04:56:05;;;;;;;0.00;0.00;;;;;;;12.60;64.97;100794.53;7364612;19;20038;-59
2022/05/13 04:58:31;;;;;;;0.05;0.05;;;;;;;12.49;65.04;100773.03;7365338;19;20014;-59
2022/05/13 05:00:59;;;;;;;0.00;0.00;;;;;;;12.67;64.63;100801.31;7363428;19;20014;-61
2022/05/13 05:03:28;;;;;;;0.05;0.05;;;;;;;12.68;65.08;100797.78;7365752;19;20006;-60
2022/05/13 05:05:54;;;;;;;0.10;0.10;;;;;;;12.68;65.07;100800.41;7363641;19;20636;-61
2022/05/13 05:08:20;;;;;;;0.00;0.00;;;;;;;12.70;65.26;100784.63;7365417;19;20074;-59
2022/05/13 05:10:46;;;;;;;0.00;0.00;;;;;;;12.72;65.23;100788.94;7363789;19;20013;-59
2022/05/13 05:13:20;;;;;;;0.00;0.00;;;;;;;12.76;64.77;100789.69;7363300;19;20078;-58
2022/05/13 05:15:46;;;;;;;0.00;0.00;;;;;;;12.73;64.64;100787.16;7365788;19;20011;-61
2022/05/13 05:18:12;;;;;;;0.00;0.00;;;;;;;12.76;64.60;100786.19;7360055;19;20786;-60
2022/05/13 05:20:38;;;;;;;0.00;0.00;;;;;;;12.77;64.44;100785.28;7364590;19;20025;-59
2022/05/13 05:23:04;;;;;;;0.10;0.10;;;;;;;12.66;64.72;100776.00;7367064;19;21261;-60
2022/05/13 05:25:30;;;;;;;0.00;0.00;;;;;;;12.76;64.36;100794.06;7363079;19;20014;-58
2022/05/13 05:27:57;;;;;;;0.00;0.00;;;;;;;12.77;64.63;100806.25;7364093;19;20224;-59
2022/05/13 05:30:22;;;;;;;0.10;0.10;;;;;;;12.76;64.99;100805.41;7363845;19;20049;-60
2022/05/13 05:32:48;;;;;;;0.00;0.00;;;;;;;12.75;64.57;100798.44;7363599;19;20473;-58
2022/05/13 05:35:16;;;;;;;0.00;0.00;;;;;;;12.78;64.63;100808.00;7363496;19;20066;-59
2022/05/13 05:37:42;;;;;;;0.00;0.00;;;;;;;12.76;64.46;100802.78;7362052;19;20081;-59
2022/05/13 05:40:09;;;;;;;0.10;0.10;;;;;;;12.78;64.86;100813.25;7363272;19;20525;-59
2022/05/13 05:42:36;;;;;;;0.00;0.00;;;;;;;12.80;65.02;100816.66;7361086;19;20021;-62
2022/05/13 05:45:01;;;;;;;0.00;0.00;;;;;;;12.80;65.03;100814.88;7363415;19;20509;-59
2022/05/13 05:47:27;;;;;;;0.10;0.10;;;;;;;12.83;64.92;100821.81;7358026;19;20014;-59
2022/05/13 05:49:52;;;;;;;0.00;0.00;;;;;;;12.85;65.38;100815.59;7363563;19;20022;-59
2022/05/13 05:52:17;;;;;;;0.00;0.00;;;;;;;12.88;64.81;100825.16;7363090;19;20743;-60
2022/05/13 05:57:27;;;;;;;0.00;0.00;;;;;;;12.96;64.97;100823.16;7362844;19;20014;-58
2022/05/13 05:59:53;;;;;;;0.05;0.05;;;;;;;13.00;64.90;100822.16;7365357;19;22337;-58
2022/05/13 06:02:18;;;;;;;0.00;0.00;;;;;;;13.05;64.29;100817.63;7364042;19;20002;-60
2022/05/13 06:04:45;;;;;;;0.00;0.00;;;;;;;13.03;64.34;100813.31;7361447;19;20426;-61
2022/05/13 06:07:14;;;;;;;0.00;0.00;;;;;;;13.13;64.61;100826.13;7362160;19;20024;-61
2022/05/13 06:09:40;;;;;;;0.00;0.00;;;;;;;13.15;64.56;100826.91;7362265;19;20023;-60
2022/05/13 06:12:07;;;;;;;0.00;0.00;;;;;;;13.19;64.28;100820.69;7362966;19;20044;-60
2022/05/13 06:14:33;;;;;;;0.10;0.10;;;;;;;13.09;64.02;100793.03;7363083;19;20012;-58
2022/05/13 06:16:58;;;;;;;0.10;0.10;;;;;;;13.24;64.20;100824.03;7361223;19;20085;-60
2022/05/13 06:19:23;;;;;;;0.00;0.00;;;;;;;13.26;64.18;100820.50;7361654;19;20011;-60
2022/05/13 06:21:49;;;;;;;0.00;0.00;;;;;;;13.29;64.02;100820.44;7368980;19;20372;-60
2022/05/13 06:24:14;;;;;;;0.00;0.00;;;;;;;13.29;64.15;100820.44;7363862;19;20456;-60
2022/05/13 06:26:42;;;;;;;0.00;0.00;;;;;;;13.29;63.88;100815.19;7359673;19;20072;-59
2022/05/13 06:29:07;;;;;;;0.00;0.00;;;;;;;13.33;64.18;100822.00;7357121;19;20014;-59
2022/05/13 06:31:34;;;;;;;0.00;0.00;;;;;;;13.35;64.21;100814.97;7357353;19;20054;-59
2022/05/13 06:34:00;;;;;;;0.10;0.10;;;;;;;13.37;63.87;100814.00;7356516;19;20024;-61
2022/05/13 06:36:26;;;;;;;0.00;0.00;;;;;;;13.40;63.88;100807.81;7357578;19;20901;-59
2022/05/13 06:38:51;;;;;;;0.00;0.00;;;;;;;13.07;63.53;100741.53;7360819;19;20573;-61
2022/05/13 06:41:17;;;;;;;0.00;0.00;;;;;;;13.40;63.91;100808.66;7359207;19;20070;-59
2022/05/13 06:43:42;;;;;;;0.00;0.00;;;;;;;13.41;63.30;100806.91;7360475;19;20736;-59
2022/05/13 06:46:08;;;;;;;0.10;0.10;;;;;;;13.40;63.29;100807.81;7360232;19;20646;-57
2022/05/13 06:48:33;;;;;;;0.05;0.05;;;;;;;13.40;63.45;100802.56;7356290;19;20073;-60
2022/05/13 06:51:00;;;;;;;0.00;0.00;;;;;;;13.40;63.15;100816.53;7357948;19;20065;-60
2022/05/13 06:53:25;;;;;;;0.00;0.00;;;;;;;13.41;63.16;100817.41;7357568;19;20122;-58
2022/05/13 06:55:51;;;;;;;0.10;0.10;;;;;;;13.40;63.60;100797.31;7361463;19;20565;-59
2022/05/13 06:58:16;;;;;;;0.05;0.05;;;;;;;13.30;63.60;100788.03;7365962;19;20466;-58
2022/05/13 07:00:44;;;;;;;0.00;0.00;;;;;;;13.43;63.33;100811.22;7360930;19;20011;-58
2022/05/13 07:03:17;;;;;;;;;;;;;;;13.46;62.79;100833.84;7360509;19;20074;-60
2022/05/13 07:05:43;;;;;;;0.00;0.00;;;;;;;13.46;63.52;100815.47;7359525;19;20354;-60
2022/05/13 07:08:09;;;;;;;0.00;0.00;;;;;;;13.40;63.36;100818.31;7358811;19;21525;-59
2022/05/13 07:10:35;;;;;;;0.00;0.00;;;;;;;13.46;63.65;100812.84;7361236;19;20006;-58
2022/05/13 07:13:05;;;;;;;0.00;0.00;;;;;;;13.41;63.50;100806.91;7356161;19;20480;-60
2022/05/13 07:15:30;;;;;;;0.10;0.10;;;;;;;13.52;63.54;100811.78;7358998;19;20010;-59
2022/05/13 07:17:57;;;;;;;0.00;0.00;;;;;;;13.44;63.68;100814.69;7355657;19;20018;-60
2022/05/13 07:20:23;;;;;;;0.00;0.00;;;;;;;13.52;63.59;100815.28;7357403;19;20023;-58
2022/05/13 07:22:48;;;;;;;0.00;0.00;;;;;;;13.55;63.43;100815.19;7358758;19;20017;-60
2022/05/13 07:25:14;;;;;;;0.00;0.00;;;;;;;13.69;63.56;100835.72;7358424;19;20078;-60
2022/05/13 07:27:39;;;;;;;0.00;0.00;;;;;;;13.72;63.36;100830.34;7357559;19;20018;-60
2022/05/13 07:30:05;;;;;;;0.00;0.00;;;;;;;13.67;63.67;100817.38;7361398;19;20006;-60
2022/05/13 07:32:31;;;;;;;0.10;0.10;;;;;;;13.88;63.01;100841.19;7359693;19;20010;-60
2022/05/13 07:34:56;;;;;;;0.00;0.00;;;;;;;13.91;63.09;100830.59;7355990;19;20066;-59
2022/05/13 07:37:21;;;;;;;0.08;0.08;;;;;;;13.90;63.17;100824.50;7357555;19;20014;-59
2022/05/13 07:42:30;;;;;;;0.00;0.00;;;;;;;14.10;62.84;100836.94;7361281;19;20038;-60
2022/05/13 07:44:56;;;;;;;0.10;0.10;;;;;;;14.14;62.78;100846.41;7358259;19;20006;-60
2022/05/13 07:47:21;;;;;;;0.10;0.10;;;;;;;14.04;62.75;100816.16;7366257;19;20026;-58
2022/05/13 07:49:46;;;;;;;0.10;0.10;;;;;;;14.23;62.32;100840.81;7366226;19;20331;-59
2022/05/13 07:52:12;;;;;;;0.00;0.00;;;;;;;14.27;62.40;100834.53;7367519;19;20007;-58
2022/05/13 07:54:38;;;;;;;0.00;0.00;;;;;;;14.34;62.13;100847.47;7366771;19;20066;-59
2022/05/13 07:57:04;;;;;;;0.00;0.00;;;;;;;14.40;61.80;100834.97;7368780;19;20018;-59
2022/05/13 08:00:24;;;;;;;0.00;0.00;;;;;;;14.46;61.53;100847.03;7368454;19;20774;-59
2022/05/13 08:02:19;;;;;;;0.00;0.00;;;;;;;14.54;61.22;100831.84;7261906;19;2004588;-60
2022/05/13 08:04:44;;;;;;;0.10;0.10;;;;;;;14.59;61.36;100844.81;7365359;19;20034;-60
2022/05/13 08:07:09;;;;;;;0.00;0.00;;;;;;;14.61;61.57;100843.88;7365977;19;20014;-59
2022/05/13 08:09:35;;;;;;;0.00;0.00;;;;;;;14.71;61.44;100834.72;7367927;19;20583;-58
2022/05/13 08:12:00;;;;;;;0.00;0.00;;;;;;;14.77;61.25;100834.50;7366327;19;20049;-58
2022/05/13 08:14:25;;;;;;;0.00;0.00;;;;;;;14.84;61.06;100840.38;7367235;19;20038;-59
2022/05/13 08:16:51;;;;;;;0.00;0.00;;;;;;;14.94;60.72;100843.50;7366553;19;20799;-58
2022/05/13 08:19:17;;;;;;;0.03;0.03;;;;;;;14.99;60.53;100847.66;7363228;19;20035;-57
2022/05/13 08:21:43;;;;;;;0.00;0.00;;;;;;;15.06;59.98;100853.56;7362674;19;20015;-60
2022/05/13 08:24:08;;;;;;;0.00;0.00;;;;;;;15.09;60.39;100847.31;7362643;19;19999;-59
2022/05/13 08:26:33;;;;;;;0.00;0.00;;;;;;;15.14;60.34;100850.63;7364002;19;20621;-60
2022/05/13 08:28:59;;;;;;;0.00;0.00;;;;;;;15.20;60.18;100853.84;7365540;19;20014;-60
2022/05/13 08:31:24;;;;;;;0.00;0.00;;;;;;;15.25;59.88;100851.91;7364731;19;20007;-58
2022/05/13 08:33:49;;;;;;;0.00;0.00;;;;;;;15.29;59.70;100853.50;7363444;19;20092;-60
2022/05/13 08:36:15;;;;;;;0.00;0.00;;;;;;;15.30;59.67;100847.31;7362390;19;20045;-59
2022/05/13 08:38:42;;;;;;;0.10;0.10;;;;;;;15.35;59.07;100856.81;7359700;19;20481;-59
2022/05/13 08:41:07;;;;;;;0.00;0.00;;;;;;;15.38;59.24;100852.28;7363215;19;20019;-59
2022/05/13 08:43:46;;;;;;;0.10;0.10;;;;;;;15.40;59.91;100865.38;7362987;19;20060;-58
2022/05/13 08:46:39;;;;;;;0.05;0.05;;;;;;;15.49;59.82;100867.63;7365083;19;20007;-59
2022/05/13 08:49:25;;;;;;;0.10;0.10;;;;;;;15.55;59.34;100870.88;7262654;19;2005719;-59
2022/05/13 08:55:07;;;;;;;0.10;0.10;;;;;;;15.69;59.25;100878.25;7262157;19;2004391;-59
2022/05/13 08:57:38;;;;;;;0.00;0.00;;;;;;;15.76;58.80;100879.72;7365094;19;20010;-58
2022/05/13 09:00:13;;;;;;;0.00;0.00;;;;;;;15.86;58.91;100874.06;7351766;19;20954;-58
2022/05/13 09:02:49;;;;;;;0.10;0.10;;;;;;;15.95;58.08;100873.66;7363244;19;20018;-58
2022/05/13 09:05:31;;;;;;;0.00;0.00;;;;;;;16.04;57.66;100878.56;7361669;19;20006;-60
2022/05/13 09:07:57;;;;;;;0.00;0.00;;;;;;;16.03;57.65;100882.97;7367607;19;20010;-58
2022/05/13 09:10:24;;;;;;;0.00;0.00;;;;;;;16.10;57.37;100883.56;7362032;19;20440;-60
2022/05/13 09:13:12;;;;;;;0.00;0.00;;;;;;;16.14;57.07;100881.66;7360399;19;20482;-60
2022/05/13 09:15:52;;;;;;;0.00;0.00;;;;;;;16.20;57.81;100882.25;7370761;19;20893;-58
2022/05/13 09:18:29;;;;;;;0.10;0.10;;;;;;;16.24;57.71;100885.63;7359292;19;20014;-59
2022/05/13 09:20:56;;;;;;;0.00;0.00;;;;;;;16.30;57.65;100890.59;7359443;19;20069;-58
2022/05/13 09:23:22;;;;;;;0.00;0.00;;;;;;;16.39;56.84;100892.00;7359879;19;20085;-58
2022/05/13 09:26:20;;;;;;;0.00;0.00;;;;;;;16.52;57.25;100893.16;7360199;19;20105;-59
2022/05/13 09:29:11;;;;;;;0.10;0.10;;;;;;;16.66;57.12;100895.19;7265221;19;2004231;-60
2022/05/13 09:31:43;;;;;;;0.00;0.00;;;;;;;16.71;56.46;100886.16;7358871;19;20014;-59
2022/05/13 09:34:15;;;;;;;0.05;0.05;;;;;;;16.80;55.74;100901.59;7359288;19;20039;-60
2022/05/13 09:36:41;;;;;;;0.10;0.10;;;;;;;16.81;55.50;100907.72;7358947;19;20007;-58
2022/05/13 09:39:24;;;;;;;0.10;0.10;;;;;;;16.86;55.19;100932.94;7358856;19;20125;-60
2022/05/13 09:41:52;;;;;;;0.00;0.00;;;;;;;16.83;54.77;100904.09;7356955;19;20011;-59
2022/05/13 09:44:23;;;;;;;;;;;;;;;16.86;55.18;100901.28;7353122;19;20052;-59
2022/05/13 09:47:11;;;;;;;0.00;0.00;;;;;;;16.84;55.32;100913.72;7358508;19;19922;-59
2022/05/13 09:49:42;;;;;;;0.05;0.05;;;;;;;16.84;55.02;100940.09;7357468;19;20027;-58
2022/05/13 09:52:10;;;;;;;0.00;0.00;;;;;;;16.88;54.60;100921.47;7358767;19;20031;-58
2022/05/13 09:54:41;;;;;;;0.10;0.10;;;;;;;16.97;54.82;100921.06;7357764;19;20019;-60
2022/05/13 09:57:08;;;;;;;0.10;0.10;;;;;;;17.06;54.87;100918.84;7356538;19;20728;-60
2022/05/13 09:59:42;;;;;;;0.00;0.00;;;;;;;17.20;54.55;100923.50;7359733;19;20081;-59
2022/05/13 10:02:20;;;;;;;0.00;0.00;;;;;;;17.35;54.69;100909.56;7356779;19;20322;-59
2022/05/13 10:04:55;;;;;;;0.00;0.00;;;;;;;17.48;54.92;100930.09;7359029;19;20021;-59
2022/05/13 10:07:24;;;;;;;0.10;0.10;;;;;;;17.59;53.71;100922.53;7354608;19;20045;-58
2022/05/13 10:15:40;;;;;;;0.08;0.08;;;;;;;17.78;52.77;100944.50;7254816;19;2004568;-60
2022/05/13 10:18:25;;;;;;;0.10;0.10;;;;;;;17.78;52.96;100949.78;7361053;19;20014;-60
2022/05/13 10:20:57;;;;;;;0.10;0.10;;;;;;;17.72;51.86;100947.41;7360570;19;20614;-59
2022/05/13 10:23:31;;;;;;;0.10;0.10;;;;;;;17.66;52.12;100941.59;7361990;19;20017;-58
2022/05/13 10:26:02;;;;;;;0.00;0.00;;;;;;;17.58;52.39;100940.16;7360988;19;20474;-60
2022/05/13 10:28:54;;;;;;;0.10;0.10;;;;;;;17.54;52.75;100957.09;7359745;19;20018;-60
2022/05/13 10:31:28;;;;;;;0.00;0.00;;;;;;;17.50;52.39;100946.75;7257676;19;2004421;-58
2022/05/13 10:34:19;;;;;;;0.00;0.00;;;;;;;17.47;52.62;100938.97;7359457;19;20014;-60
2022/05/13 10:36:54;;;;;;;0.03;0.03;;;;;;;17.51;51.54;100938.75;7260395;19;2004476;-59
2022/05/13 10:39:45;;;;;;;0.00;0.00;;;;;;;17.51;52.51;100929.97;7367583;19;20006;-60
2022/05/13 10:42:33;;;;;;;0.00;0.00;;;;;;;17.57;52.71;100940.22;7253935;19;2004146;-58
2022/05/13 10:45:21;;;;;;;0.10;0.10;;;;;;;17.60;52.67;100926.91;7360053;19;21001;-59
2022/05/13 10:48:00;;;;;;;0.00;0.00;;;;;;;17.62;52.48;100927.66;7366195;19;20011;-60
2022/05/13 10:50:35;;;;;;;0.10;0.10;;;;;;;17.68;52.25;100932.63;7359348;19;20090;-60
2022/05/13 10:53:06;;;;;;;0.10;0.10;;;;;;;17.70;52.31;100936.09;7360463;19;21022;-58
2022/05/13 10:55:42;;;;;;;0.00;0.00;;;;;;;17.73;51.87;100943.88;7361231;19;20013;-58
2022/05/13 10:58:23;;;;;;;0.10;0.10;;;;;;;17.78;52.39;100939.22;7357884;19;20421;-60
2022/05/13 11:01:17;;;;;;;0.00;0.00;;;;;;;17.84;52.28;100927.50;7358179;19;20348;-57
2022/05/13 11:03:51;;;;;;;0.10;0.10;;;;;;;17.89;51.66;100934.28;7253221;19;2004227;-60
2022/05/13 11:06:29;;;;;;;0.10;0.10;;;;;;;17.92;51.39;100925.34;7358421;19;20014;-60
2022/05/13 11:09:15;;;;;;;0.10;0.10;;;;;;;17.95;51.86;100919.06;7361139;19;20038;-58
2022/05/13 11:11:43;;;;;;;0.00;0.00;;;;;;;18.01;51.10;100924.88;7362909;19;20013;-59
2022/05/13 11:14:21;;;;;;;0.10;0.10;;;;;;;18.12;50.85;100924.34;7356511;19;20031;-60
2022/05/13 11:16:54;;;;;;;0.10;0.10;;;;;;;18.11;49.72;100920.84;7354306;19;20035;-60
2022/05/13 11:19:38;;;;;;;0.10;0.10;;;;;;;18.18;50.62;100931.09;7359343;19;20086;-60
2022/05/13 11:22:24;;;;;;;0.03;0.03;;;;;;;17.93;50.89;100873.34;7356679;19;20095;-58
2022/05/13 11:27:42;;;;;;;0.10;0.10;;;;;;;18.33;49.80;100939.09;7257408;19;2004416;-59
2022/05/13 11:30:16;;;;;;;0.10;0.10;;;;;;;18.44;50.34;100938.56;7357793;19;20010;-59
2022/05/13 11:32:49;;;;;;;0.10;0.10;;;;;;;18.52;49.09;100924.94;7359986;19;20006;-59
2022/05/13 11:35:31;;;;;;;0.10;0.10;;;;;;;18.62;49.70;100936.75;7358814;19;20113;-60
2022/05/13 11:38:06;;;;;;;0.05;0.05;;;;;;;18.76;49.45;100936.06;7356591;19;20081;-60
2022/05/13 11:40:59;;;;;;;0.10;0.10;;;;;;;18.98;50.06;100933.97;7358764;19;20010;-59
2022/05/13 11:43:43;;;;;;;0.05;0.05;;;;;;;19.18;50.26;100951.44;7258377;19;2004458;-58
2022/05/13 11:46:46;;;;;;;0.10;0.10;;;;;;;19.42;49.13;100951.88;7357263;19;20009;-59
2022/05/13 11:49:25;;;;;;;0.10;0.10;;;;;;;19.63;48.29;100952.50;7253571;19;2004341;-59
2022/05/13 11:51:51;;;;;;;0.10;0.10;;;;;;;19.71;46.73;100960.84;7358954;19;20010;-58
2022/05/13 11:54:24;;;;;;;0.10;0.10;;;;;;;19.87;45.77;100968.78;7357743;19;20221;-60
2022/05/13 11:57:10;;;;;;;0.00;0.00;;;;;;;19.87;45.98;100967.00;7358410;19;20011;-59
2022/05/13 11:59:48;;;;;;;0.10;0.10;;;;;;;20.00;45.85;100961.00;7355020;19;20006;-60
2022/05/13 12:02:33;;;;;;;0.10;0.10;;;;;;;20.07;45.89;100981.78;7358956;19;20011;-59
2022/05/13 12:05:09;;;;;;;0.10;0.10;;;;;;;20.09;45.82;100955.16;7356963;19;20002;-60